sensor_id;sensor_type;location;lat;lon;timestamp;pressure;altitude;pressure_sealevel;temperature;humidity
16255;BME280;8235;52.198;9.904;2023-05-29T00:01:26;101376.75;;;15.77;66.75
16255;BME280;8235;52.198;9.904;2023-05-29T00:03:52;101368.22;;;15.72;67.16
16255;BME280;8235;52.198;9.904;2023-05-29T00:06:19;101385.50;;;15.68;67.30
16255;BME280;8235;52.198;9.904;2023-05-29T00:08:45;101387.56;;;15.65;67.47
16255;BME280;8235;52.198;9.904;2023-05-29T00:11:12;101381.78;;;15.58;67.70
16255;BME280;8235;52.198;9.904;2023-05-29T00:13:40;101382.19;;;15.52;68.04
16255;BME280;8235;52.198;9.904;2023-05-29T00:16:07;101381.75;;;15.45;67.89
16255;BME280;8235;52.198;9.904;2023-05-29T00:18:34;101387.69;;;15.38;68.02
16255;BME280;8235;52.198;9.904;2023-05-29T00:21:01;101375.88;;;15.27;68.20
16255;BME280;8235;52.198;9.904;2023-05-29T00:23:28;101381.72;;;15.21;68.87
16255;BME280;8235;52.198;9.904;2023-05-29T00:25:54;101386.66;;;15.15;69.26
16255;BME280;8235;52.198;9.904;2023-05-29T00:28:20;101382.66;;;15.08;69.49
16255;BME280;8235;52.198;9.904;2023-05-29T00:30:49;101386.66;;;15.02;69.75
16255;BME280;8235;52.198;9.904;2023-05-29T00:33:15;101390.63;;;14.97;69.92
16255;BME280;8235;52.198;9.904;2023-05-29T00:35:43;101389.31;;;14.89;70.25
16255;BME280;8235;52.198;9.904;2023-05-29T00:38:09;101390.63;;;14.84;70.25
16255;BME280;8235;52.198;9.904;2023-05-29T00:40:36;101388.34;;;14.78;70.80
16255;BME280;8235;52.198;9.904;2023-05-29T00:43:02;101394.22;;;14.70;70.98
16255;BME280;8235;52.198;9.904;2023-05-29T00:45:29;101402.63;;;14.66;71.15
16255;BME280;8235;52.198;9.904;2023-05-29T00:47:57;101403.03;;;14.59;71.21
16255;BME280;8235;52.198;9.904;2023-05-29T00:50:24;101405.34;;;14.51;71.65
16255;BME280;8235;52.198;9.904;2023-05-29T00:52:52;101413.72;;;14.47;71.49
16255;BME280;8235;52.198;9.904;2023-05-29T00:55:18;101411.53;;;14.39;71.70
16255;BME280;8235;52.198;9.904;2023-05-29T00:57:45;101404.88;;;14.32;72.46
16255;BME280;8235;52.198;9.904;2023-05-29T01:00:13;101410.63;;;14.26;72.70
16255;BME280;8235;52.198;9.904;2023-05-29T01:02:40;101409.31;;;14.19;72.71
16255;BME280;8235;52.198;9.904;2023-05-29T01:05:11;101417.00;;;14.11;73.28
16255;BME280;8235;52.198;9.904;2023-05-29T01:07:37;101414.63;;;14.06;73.47
16255;BME280;8235;52.198;9.904;2023-05-29T01:10:05;101416.84;;;14.00;74.05
16255;BME280;8235;52.198;9.904;2023-05-29T01:12:37;101418.03;;;13.96;74.22
16255;BME280;8235;52.198;9.904;2023-05-29T01:15:16;101423.56;;;13.93;74.29
16255;BME280;8235;52.198;9.904;2023-05-29T01:17:53;101423.97;;;13.86;74.59
16255;BME280;8235;52.198;9.904;2023-05-29T01:20:30;101414.50;;;13.81;74.43
16255;BME280;8235;52.198;9.904;2023-05-29T01:23:08;101420.25;;;13.75;74.76
16255;BME280;8235;52.198;9.904;2023-05-29T01:25:50;101411.66;;;13.70;74.93
16255;BME280;8235;52.198;9.904;2023-05-29T01:28:20;101417.41;;;13.64;75.25
16255;BME280;8235;52.198;9.904;2023-05-29T01:30:48;101421.44;;;13.57;75.25
16255;BME280;8235;52.198;9.904;2023-05-29T01:33:15;101433.38;;;13.51;75.66
16255;BME280;8235;52.198;9.904;2023-05-29T01:35:42;101430.13;;;13.46;75.45
16255;BME280;8235;52.198;9.904;2023-05-29T01:38:08;101428.72;;;13.40;75.69
16255;BME280;8235;52.198;9.904;2023-05-29T01:40:35;101423.75;;;13.34;76.28
16255;BME280;8235;52.198;9.904;2023-05-29T01:43:03;101430.22;;;13.30;76.09
16255;BME280;8235;52.198;9.904;2023-05-29T01:45:31;101444.00;;;13.24;76.14
16255;BME280;8235;52.198;9.904;2023-05-29T01:47:57;101447.72;;;13.22;76.23
16255;BME280;8235;52.198;9.904;2023-05-29T01:50:24;101439.13;;;13.16;76.41
16255;BME280;8235;52.198;9.904;2023-05-29T01:52:51;101447.28;;;13.13;76.80
16255;BME280;8235;52.198;9.904;2023-05-29T01:55:18;101448.44;;;13.09;76.78
16255;BME280;8235;52.198;9.904;2023-05-29T01:57:45;101444.25;;;13.05;76.93
16255;BME280;8235;52.198;9.904;2023-05-29T02:00:12;101450.72;;;13.01;76.62
16255;BME280;8235;52.198;9.904;2023-05-29T02:02:41;101453.56;;;12.98;77.15
16255;BME280;8235;52.198;9.904;2023-05-29T02:05:09;101453.66;;;12.97;76.90
16255;BME280;8235;52.198;9.904;2023-05-29T02:07:36;101447.63;;;12.93;77.30
16255;BME280;8235;52.198;9.904;2023-05-29T02:10:04;101454.03;;;12.91;76.92
16255;BME280;8235;52.198;9.904;2023-05-29T02:12:30;101461.41;;;12.87;76.79
16255;BME280;8235;52.198;9.904;2023-05-29T02:14:57;101452.59;;;12.85;76.93
16255;BME280;8235;52.198;9.904;2023-05-29T02:17:23;101457.34;;;12.80;76.84
16255;BME280;8235;52.198;9.904;2023-05-29T02:19:51;101458.31;;;12.79;77.04
16255;BME280;8235;52.198;9.904;2023-05-29T02:22:18;101453.13;;;12.76;77.16
16255;BME280;8235;52.198;9.904;2023-05-29T02:24:44;101456.84;;;12.73;77.08
16255;BME280;8235;52.198;9.904;2023-05-29T02:27:11;101453.53;;;12.70;76.83
16255;BME280;8235;52.198;9.904;2023-05-29T02:29:37;101463.44;;;12.68;76.87
16255;BME280;8235;52.198;9.904;2023-05-29T02:32:04;101469.91;;;12.64;76.81
16255;BME280;8235;52.198;9.904;2023-05-29T02:34:31;101474.47;;;12.62;77.03
16255;BME280;8235;52.198;9.904;2023-05-29T02:36:58;101472.00;;;12.59;77.06
16255;BME280;8235;52.198;9.904;2023-05-29T02:39:25;101465.00;;;12.56;76.89
16255;BME280;8235;52.198;9.904;2023-05-29T02:41:52;101474.09;;;12.54;76.68
16255;BME280;8235;52.198;9.904;2023-05-29T02:44:19;101485.81;;;12.51;76.72
16255;BME280;8235;52.198;9.904;2023-05-29T02:46:45;101476.16;;;12.48;76.97
16255;BME280;8235;52.198;9.904;2023-05-29T02:49:12;101483.47;;;12.45;76.73
16255;BME280;8235;52.198;9.904;2023-05-29T02:51:38;101481.75;;;12.44;76.91
16255;BME280;8235;52.198;9.904;2023-05-29T02:54:06;101490.72;;;12.43;76.44
16255;BME280;8235;52.198;9.904;2023-05-29T02:56:33;101493.47;;;12.41;76.08
16255;BME280;8235;52.198;9.904;2023-05-29T02:58:59;101493.75;;;12.37;76.18
16255;BME280;8235;52.198;9.904;2023-05-29T03:01:26;101487.81;;;12.32;76.06
16255;BME280;8235;52.198;9.904;2023-05-29T03:03:52;101487.13;;;12.28;76.37
16255;BME280;8235;52.198;9.904;2023-05-29T03:06:19;101488.16;;;12.26;76.13
16255;BME280;8235;52.198;9.904;2023-05-29T03:08:45;101492.72;;;12.24;76.35
16255;BME280;8235;52.198;9.904;2023-05-29T03:11:14;101485.75;;;12.21;76.27
16255;BME280;8235;52.198;9.904;2023-05-29T03:13:41;101486.69;;;12.20;76.40
16255;BME280;8235;52.198;9.904;2023-05-29T03:16:07;101483.34;;;12.16;76.10
16255;BME280;8235;52.198;9.904;2023-05-29T03:18:34;101487.84;;;12.16;76.16
16255;BME280;8235;52.198;9.904;2023-05-29T03:21:01;101493.19;;;12.16;76.43
16255;BME280;8235;52.198;9.904;2023-05-29T03:23:27;101496.88;;;12.13;76.21
16255;BME280;8235;52.198;9.904;2023-05-29T03:25:54;101492.56;;;12.11;76.52
16255;BME280;8235;52.198;9.904;2023-05-29T03:28:22;101500.56;;;12.11;76.27
16255;BME280;8235;52.198;9.904;2023-05-29T03:30:48;101492.72;;;12.08;76.17
16255;BME280;8235;52.198;9.904;2023-05-29T03:33:15;101496.34;;;12.07;76.05
16255;BME280;8235;52.198;9.904;2023-05-29T03:35:41;101496.34;;;12.07;76.38
16255;BME280;8235;52.198;9.904;2023-05-29T03:38:08;101491.00;;;12.07;76.58
16255;BME280;8235;52.198;9.904;2023-05-29T03:40:34;101497.13;;;12.09;76.46
16255;BME280;8235;52.198;9.904;2023-05-29T03:43:01;101491.78;;;12.09;76.05
16255;BME280;8235;52.198;9.904;2023-05-29T03:45:28;101491.78;;;12.09;76.27
16255;BME280;8235;52.198;9.904;2023-05-29T03:47:55;101502.56;;;12.07;76.13
16255;BME280;8235;52.198;9.904;2023-05-29T03:50:21;101494.72;;;12.04;75.78
16255;BME280;8235;52.198;9.904;2023-05-29T03:52:48;101500.22;;;12.01;75.81
16255;BME280;8235;52.198;9.904;2023-05-29T03:55:14;101504.88;;;11.98;75.78
16255;BME280;8235;52.198;9.904;2023-05-29T03:57:41;101511.41;;;11.92;75.70
16255;BME280;8235;52.198;9.904;2023-05-29T04:00:08;101518.72;;;11.89;75.96
16255;BME280;8235;52.198;9.904;2023-05-29T04:02:38;101522.50;;;11.85;76.12
16255;BME280;8235;52.198;9.904;2023-05-29T04:05:05;101523.63;;;11.80;76.07
16255;BME280;8235;52.198;9.904;2023-05-29T04:07:32;101523.81;;;11.77;76.29
16255;BME280;8235;52.198;9.904;2023-05-29T04:09:59;101510.66;;;11.73;76.53
16255;BME280;8235;52.198;9.904;2023-05-29T04:12:25;101517.03;;;11.70;76.89
16255;BME280;8235;52.198;9.904;2023-05-29T04:14:52;101520.63;;;11.69;76.97
16255;BME280;8235;52.198;9.904;2023-05-29T04:17:18;101519.78;;;11.69;77.55
16255;BME280;8235;52.198;9.904;2023-05-29T04:19:46;101514.44;;;11.69;77.43
16255;BME280;8235;52.198;9.904;2023-05-29T04:22:12;101521.66;;;11.67;77.52
16255;BME280;8235;52.198;9.904;2023-05-29T04:24:39;101529.59;;;11.68;77.64
16255;BME280;8235;52.198;9.904;2023-05-29T04:27:07;101529.59;;;11.68;77.97
16255;BME280;8235;52.198;9.904;2023-05-29T04:29:34;101525.97;;;11.69;78.05
16255;BME280;8235;52.198;9.904;2023-05-29T04:32:01;101523.38;;;11.68;78.04
16255;BME280;8235;52.198;9.904;2023-05-29T04:34:29;101520.72;;;11.68;77.79
16255;BME280;8235;52.198;9.904;2023-05-29T04:36:58;101525.13;;;11.69;78.00
16255;BME280;8235;52.198;9.904;2023-05-29T04:39:24;101523.22;;;11.71;78.23
16255;BME280;8235;52.198;9.904;2023-05-29T04:41:51;101518.75;;;11.71;78.27
16255;BME280;8235;52.198;9.904;2023-05-29T04:44:17;101532.00;;;11.73;78.06
16255;BME280;8235;52.198;9.904;2023-05-29T04:46:44;101536.41;;;11.74;78.08
16255;BME280;8235;52.198;9.904;2023-05-29T04:49:12;101534.59;;;11.74;78.02
16255;BME280;8235;52.198;9.904;2023-05-29T04:51:39;101527.47;;;11.75;78.17
16255;BME280;8235;52.198;9.904;2023-05-29T04:54:07;101532.66;;;11.78;77.94
16255;BME280;8235;52.198;9.904;2023-05-29T04:56:34;101536.19;;;11.78;77.91
16255;BME280;8235;52.198;9.904;2023-05-29T04:59:00;101541.47;;;11.80;77.83
16255;BME280;8235;52.198;9.904;2023-05-29T05:01:27;101541.25;;;11.83;78.07
16255;BME280;8235;52.198;9.904;2023-05-29T05:03:54;101547.38;;;11.85;77.96
16255;BME280;8235;52.198;9.904;2023-05-29T05:06:21;101548.09;;;11.89;78.40
16255;BME280;8235;52.198;9.904;2023-05-29T05:08:47;101540.00;;;11.90;77.93
16255;BME280;8235;52.198;9.904;2023-05-29T05:11:15;101548.72;;;11.94;77.94
16255;BME280;8235;52.198;9.904;2023-05-29T05:13:42;101537.88;;;11.97;77.80
16255;BME280;8235;52.198;9.904;2023-05-29T05:16:08;101549.13;;;12.02;77.94
16255;BME280;8235;52.198;9.904;2023-05-29T05:18:35;101538.28;;;12.05;77.68
16255;BME280;8235;52.198;9.904;2023-05-29T05:21:02;101542.53;;;12.09;77.83
16255;BME280;8235;52.198;9.904;2023-05-29T05:23:29;101551.22;;;12.12;77.58
16255;BME280;8235;52.198;9.904;2023-05-29T05:25:56;101539.53;;;12.15;77.34
16255;BME280;8235;52.198;9.904;2023-05-29T05:28:23;101547.38;;;12.18;77.54
16255;BME280;8235;52.198;9.904;2023-05-29T05:30:50;101536.47;;;12.21;77.33
16255;BME280;8235;52.198;9.904;2023-05-29T05:33:17;101538.81;;;12.27;77.28
16255;BME280;8235;52.198;9.904;2023-05-29T05:35:43;101538.41;;;12.35;77.39
16255;BME280;8235;52.198;9.904;2023-05-29T05:38:10;101534.25;;;12.45;77.49
16255;BME280;8235;52.198;9.904;2023-05-29T05:40:36;101535.34;;;12.57;77.82
16255;BME280;8235;52.198;9.904;2023-05-29T05:43:03;101531.97;;;12.69;77.80
16255;BME280;8235;52.198;9.904;2023-05-29T05:45:30;101540.13;;;12.81;77.45
16255;BME280;8235;52.198;9.904;2023-05-29T05:47:57;101542.16;;;12.92;77.13
16255;BME280;8235;52.198;9.904;2023-05-29T05:50:23;101537.06;;;13.03;75.83
16255;BME280;8235;52.198;9.904;2023-05-29T05:52:50;101544.44;;;13.14;75.22
16255;BME280;8235;52.198;9.904;2023-05-29T05:55:17;101544.81;;;13.24;74.75
16255;BME280;8235;52.198;9.904;2023-05-29T05:57:43;101550.16;;;13.38;74.56
16255;BME280;8235;52.198;9.904;2023-05-29T06:00:11;101548.47;;;13.51;73.43
16255;BME280;8235;52.198;9.904;2023-05-29T06:02:39;101551.22;;;13.64;72.56
16255;BME280;8235;52.198;9.904;2023-05-29T06:05:08;101558.44;;;13.77;71.60
16255;BME280;8235;52.198;9.904;2023-05-29T06:07:34;101554.22;;;13.87;70.88
16255;BME280;8235;52.198;9.904;2023-05-29T06:10:01;101555.91;;;14.03;70.29
16255;BME280;8235;52.198;9.904;2023-05-29T06:12:28;101553.31;;;14.15;68.89
16255;BME280;8235;52.198;9.904;2023-05-29T06:14:55;101565.19;;;14.25;67.99
16255;BME280;8235;52.198;9.904;2023-05-29T06:17:22;101552.03;;;14.35;66.73
16255;BME280;8235;52.198;9.904;2023-05-29T06:19:50;101554.16;;;14.44;65.93
16255;BME280;8235;52.198;9.904;2023-05-29T06:22:17;101558.91;;;14.53;65.54
16255;BME280;8235;52.198;9.904;2023-05-29T06:24:43;101558.31;;;14.63;65.00
16255;BME280;8235;52.198;9.904;2023-05-29T06:27:10;101562.97;;;14.73;64.68
16255;BME280;8235;52.198;9.904;2023-05-29T06:29:36;101556.03;;;14.83;64.22
16255;BME280;8235;52.198;9.904;2023-05-29T06:32:03;101552.63;;;14.94;64.22
16255;BME280;8235;52.198;9.904;2023-05-29T06:34:30;101556.19;;;15.07;64.07
16255;BME280;8235;52.198;9.904;2023-05-29T06:36:57;101567.06;;;15.18;62.97
16255;BME280;8235;52.198;9.904;2023-05-29T06:39:24;101563.44;;;15.19;61.33
16255;BME280;8235;52.198;9.904;2023-05-29T06:41:50;101559.88;;;15.19;61.03
16255;BME280;8235;52.198;9.904;2023-05-29T06:44:17;101564.91;;;15.23;61.16
16255;BME280;8235;52.198;9.904;2023-05-29T06:46:43;101560.31;;;15.25;60.46
16255;BME280;8235;52.198;9.904;2023-05-29T06:49:10;101570.28;;;15.23;60.96
16255;BME280;8235;52.198;9.904;2023-05-29T06:51:36;101559.53;;;15.23;60.95
16255;BME280;8235;52.198;9.904;2023-05-29T06:54:04;101568.06;;;15.30;61.04
16255;BME280;8235;52.198;9.904;2023-05-29T06:56:31;101566.69;;;15.37;61.47
16255;BME280;8235;52.198;9.904;2023-05-29T06:58:58;101567.84;;;15.46;61.02
16255;BME280;8235;52.198;9.904;2023-05-29T07:01:24;101583.44;;;15.53;60.67
16255;BME280;8235;52.198;9.904;2023-05-29T07:03:51;101586.25;;;15.65;60.91
16255;BME280;8235;52.198;9.904;2023-05-29T07:06:18;101592.50;;;15.78;60.49
16255;BME280;8235;52.198;9.904;2023-05-29T07:08:44;101597.78;;;15.92;60.04
16255;BME280;8235;52.198;9.904;2023-05-29T07:11:12;101597.00;;;16.03;59.16
16255;BME280;8235;52.198;9.904;2023-05-29T07:13:39;101594.84;;;16.08;58.59
16255;BME280;8235;52.198;9.904;2023-05-29T07:16:06;101601.09;;;16.08;57.77
16255;BME280;8235;52.198;9.904;2023-05-29T07:18:32;101596.78;;;16.06;57.86
16255;BME280;8235;52.198;9.904;2023-05-29T07:20:59;101598.72;;;16.04;57.70
16255;BME280;8235;52.198;9.904;2023-05-29T07:23:26;101604.75;;;16.07;58.35
16255;BME280;8235;52.198;9.904;2023-05-29T07:25:53;101604.19;;;16.15;58.30
16255;BME280;8235;52.198;9.904;2023-05-29T07:28:20;101603.84;;;16.19;57.86
16255;BME280;8235;52.198;9.904;2023-05-29T07:30:47;101602.78;;;16.22;57.59
16255;BME280;8235;52.198;9.904;2023-05-29T07:33:13;101605.25;;;16.25;57.27
16255;BME280;8235;52.198;9.904;2023-05-29T07:35:40;101596.97;;;16.28;57.58
16255;BME280;8235;52.198;9.904;2023-05-29T07:38:06;101612.22;;;16.40;58.16
16255;BME280;8235;52.198;9.904;2023-05-29T07:40:33;101611.31;;;16.52;58.01
16255;BME280;8235;52.198;9.904;2023-05-29T07:42:59;101607.97;;;16.61;57.41
16255;BME280;8235;52.198;9.904;2023-05-29T07:45:28;101608.03;;;16.73;56.85
16255;BME280;8235;52.198;9.904;2023-05-29T07:47:54;101604.56;;;16.83;56.55
16255;BME280;8235;52.198;9.904;2023-05-29T07:50:21;101605.38;;;16.96;56.66
16255;BME280;8235;52.198;9.904;2023-05-29T07:52:47;101605.06;;;17.12;56.73
16255;BME280;8235;52.198;9.904;2023-05-29T07:55:14;101600.59;;;17.24;55.58
16255;BME280;8235;52.198;9.904;2023-05-29T07:57:40;101596.13;;;17.35;55.27
16255;BME280;8235;52.198;9.904;2023-05-29T08:00:08;101599.16;;;17.42;54.93
16255;BME280;8235;52.198;9.904;2023-05-29T08:02:40;101602.78;;;17.54;54.76
16255;BME280;8235;52.198;9.904;2023-05-29T08:05:07;101613.47;;;17.66;54.55
16255;BME280;8235;52.198;9.904;2023-05-29T08:07:34;101614.56;;;17.75;52.98
16255;BME280;8235;52.198;9.904;2023-05-29T08:10:01;101602.97;;;17.86;53.27
16255;BME280;8235;52.198;9.904;2023-05-29T08:12:27;101609.47;;;17.94;52.19
16255;BME280;8235;52.198;9.904;2023-05-29T08:14:54;101605.56;;;17.98;52.39
16255;BME280;8235;52.198;9.904;2023-05-29T08:17:20;101595.28;;;18.03;52.42
16255;BME280;8235;52.198;9.904;2023-05-29T08:19:48;101601.88;;;18.11;52.16
16255;BME280;8235;52.198;9.904;2023-05-29T08:22:15;101596.84;;;18.17;52.35
16255;BME280;8235;52.198;9.904;2023-05-29T08:24:41;101601.66;;;18.25;51.67
16255;BME280;8235;52.198;9.904;2023-05-29T08:27:08;101598.44;;;18.31;51.10
16255;BME280;8235;52.198;9.904;2023-05-29T08:29:34;101601.25;;;18.41;51.01
16255;BME280;8235;52.198;9.904;2023-05-29T08:32:02;101590.81;;;18.47;50.42
16255;BME280;8235;52.198;9.904;2023-05-29T08:34:28;101594.41;;;18.59;50.61
16255;BME280;8235;52.198;9.904;2023-05-29T08:36:57;101590.81;;;18.69;50.13
16255;BME280;8235;52.198;9.904;2023-05-29T08:39:23;101589.78;;;18.82;49.46
16255;BME280;8235;52.198;9.904;2023-05-29T08:41:55;101591.25;;;18.86;47.46
16255;BME280;8235;52.198;9.904;2023-05-29T08:44:26;101593.94;;;18.86;48.10
16255;BME280;8235;52.198;9.904;2023-05-29T08:46:56;101602.28;;;18.94;48.22
16255;BME280;8235;52.198;9.904;2023-05-29T08:49:25;101601.38;;;19.04;48.54
16255;BME280;8235;52.198;9.904;2023-05-29T08:52:02;101596.06;;;19.14;48.04
16255;BME280;8235;52.198;9.904;2023-05-29T08:54:31;101599.94;;;19.21;47.56
16255;BME280;8235;52.198;9.904;2023-05-29T08:56:59;101595.50;;;19.31;47.85
16255;BME280;8235;52.198;9.904;2023-05-29T08:59:27;101598.97;;;19.43;47.58
16255;BME280;8235;52.198;9.904;2023-05-29T09:01:56;101592.53;;;19.55;47.99
16255;BME280;8235;52.198;9.904;2023-05-29T09:04:22;101595.78;;;19.70;47.83
16255;BME280;8235;52.198;9.904;2023-05-29T09:06:50;101594.59;;;19.84;47.14
16255;BME280;8235;52.198;9.904;2023-05-29T09:09:19;101607.16;;;19.94;46.52
16255;BME280;8235;52.198;9.904;2023-05-29T09:11:45;101605.16;;;19.96;46.26
16255;BME280;8235;52.198;9.904;2023-05-29T09:14:34;101608.19;;;20.03;46.22
16255;BME280;8235;52.198;9.904;2023-05-29T09:17:01;101602.38;;;20.07;46.46
16255;BME280;8235;52.198;9.904;2023-05-29T09:19:29;101591.03;;;20.14;46.09
16255;BME280;8235;52.198;9.904;2023-05-29T09:22:00;101597.16;;;20.16;46.02
16255;BME280;8235;52.198;9.904;2023-05-29T09:24:28;101595.31;;;20.16;45.81
16255;BME280;8235;52.198;9.904;2023-05-29T09:26:55;101598.88;;;20.17;45.43
16255;BME280;8235;52.198;9.904;2023-05-29T09:29:22;101597.75;;;20.19;45.72
16255;BME280;8235;52.198;9.904;2023-05-29T09:31:50;101598.59;;;20.20;46.14
16255;BME280;8235;52.198;9.904;2023-05-29T09:34:17;101602.88;;;20.22;45.81
16255;BME280;8235;52.198;9.904;2023-05-29T09:36:43;101603.75;;;20.23;45.38
16255;BME280;8235;52.198;9.904;2023-05-29T09:39:10;101605.59;;;20.32;45.66
16255;BME280;8235;52.198;9.904;2023-05-29T09:41:42;101604.66;;;20.42;45.26
16255;BME280;8235;52.198;9.904;2023-05-29T09:44:12;101615.81;;;20.49;45.41
16255;BME280;8235;52.198;9.904;2023-05-29T09:46:39;101609.72;;;20.57;45.01
16255;BME280;8235;52.198;9.904;2023-05-29T09:49:09;101615.13;;;20.66;44.78
16255;BME280;8235;52.198;9.904;2023-05-29T09:51:36;101620.72;;;20.74;44.98
16255;BME280;8235;52.198;9.904;2023-05-29T09:54:13;101604.75;;;20.81;44.64
16255;BME280;8235;52.198;9.904;2023-05-29T09:56:43;101607.06;;;20.86;44.39
16255;BME280;8235;52.198;9.904;2023-05-29T09:59:11;101596.81;;;20.89;44.50
16255;BME280;8235;52.198;9.904;2023-05-29T10:01:39;101594.53;;;20.94;44.25
16255;BME280;8235;52.198;9.904;2023-05-29T10:04:07;101599.66;;;20.97;43.46
16255;BME280;8235;52.198;9.904;2023-05-29T10:06:35;101593.09;;;21.00;43.45
16255;BME280;8235;52.198;9.904;2023-05-29T10:09:02;101594.53;;;21.04;43.30
16255;BME280;8235;52.198;9.904;2023-05-29T10:11:33;101598.09;;;21.14;43.38
16255;BME280;8235;52.198;9.904;2023-05-29T10:14:02;101596.56;;;21.21;42.96
16255;BME280;8235;52.198;9.904;2023-05-29T10:16:31;101607.41;;;21.31;42.92
16255;BME280;8235;52.198;9.904;2023-05-29T10:19:04;101592.00;;;21.31;42.91
16255;BME280;8235;52.198;9.904;2023-05-29T10:21:32;101594.16;;;21.28;42.98
16255;BME280;8235;52.198;9.904;2023-05-29T10:24:05;101590.44;;;21.29;43.04
16255;BME280;8235;52.198;9.904;2023-05-29T10:26:36;101594.72;;;21.31;42.96
16255;BME280;8235;52.198;9.904;2023-05-29T10:29:09;101588.00;;;21.35;42.47
16255;BME280;8235;52.198;9.904;2023-05-29T10:31:43;101586.72;;;21.39;42.64
16255;BME280;8235;52.198;9.904;2023-05-29T10:34:20;101581.44;;;21.47;41.89
16255;BME280;8235;52.198;9.904;2023-05-29T10:36:58;101579.84;;;21.55;41.65
16255;BME280;8235;52.198;9.904;2023-05-29T10:39:25;101578.13;;;21.63;41.54
16255;BME280;8235;52.198;9.904;2023-05-29T10:41:52;101570.38;;;21.68;41.36
16255;BME280;8235;52.198;9.904;2023-05-29T10:44:38;101570.94;;;21.72;41.13
16255;BME280;8235;52.198;9.904;2023-05-29T10:47:06;101573.50;;;21.73;40.49
16255;BME280;8235;52.198;9.904;2023-05-29T10:49:34;101568.66;;;21.77;41.14
16255;BME280;8235;52.198;9.904;2023-05-29T10:52:03;101572.31;;;21.86;41.06
16255;BME280;8235;52.198;9.904;2023-05-29T10:54:40;101572.31;;;21.95;40.98
16255;BME280;8235;52.198;9.904;2023-05-29T10:57:07;101577.34;;;22.00;40.01
16255;BME280;8235;52.198;9.904;2023-05-29T10:59:36;101572.31;;;21.95;39.14
16255;BME280;8235;52.198;9.904;2023-05-29T11:02:04;101579.03;;;21.91;39.44
16255;BME280;8235;52.198;9.904;2023-05-29T11:04:31;101578.94;;;21.83;39.11
16255;BME280;8235;52.198;9.904;2023-05-29T11:07:00;101579.94;;;21.72;39.17
16255;BME280;8235;52.198;9.904;2023-05-29T11:09:30;101577.66;;;21.77;39.37
16255;BME280;8235;52.198;9.904;2023-05-29T11:12:13;101567.75;;;21.86;39.21
16255;BME280;8235;52.198;9.904;2023-05-29T11:14:50;101561.75;;;21.92;39.20
16255;BME280;8235;52.198;9.904;2023-05-29T11:17:31;101557.34;;;22.01;38.93
16255;BME280;8235;52.198;9.904;2023-05-29T11:20:01;101564.47;;;22.02;39.18
16255;BME280;8235;52.198;9.904;2023-05-29T11:22:41;101554.00;;;22.07;38.88
16255;BME280;8235;52.198;9.904;2023-05-29T11:25:13;101555.28;;;22.12;38.94
16255;BME280;8235;52.198;9.904;2023-05-29T11:27:40;101554.84;;;22.17;38.33
16255;BME280;8235;52.198;9.904;2023-05-29T11:30:07;101558.97;;;22.21;38.47
16255;BME280;8235;52.198;9.904;2023-05-29T11:32:36;101562.75;;;22.28;38.79
16255;BME280;8235;52.198;9.904;2023-05-29T11:35:07;101555.19;;;22.32;38.78
16255;BME280;8235;52.198;9.904;2023-05-29T11:37:34;101557.13;;;22.39;38.83
16255;BME280;8235;52.198;9.904;2023-05-29T11:40:03;101554.50;;;22.47;38.87
16255;BME280;8235;52.198;9.904;2023-05-29T11:42:30;101545.63;;;22.55;38.43
16255;BME280;8235;52.198;9.904;2023-05-29T11:45:09;101546.00;;;22.60;38.00
16255;BME280;8235;52.198;9.904;2023-05-29T11:47:53;101546.41;;;22.65;38.12
16255;BME280;8235;52.198;9.904;2023-05-29T11:50:20;101548.97;;;22.67;37.55
16255;BME280;8235;52.198;9.904;2023-05-29T11:52:47;101548.81;;;22.68;37.92
16255;BME280;8235;52.198;9.904;2023-05-29T11:55:13;101552.94;;;22.72;38.33
16255;BME280;8235;52.198;9.904;2023-05-29T11:57:40;101550.16;;;22.82;38.17
16255;BME280;8235;52.198;9.904;2023-05-29T12:00:07;101552.41;;;22.87;37.95
16255;BME280;8235;52.198;9.904;2023-05-29T12:02:36;101548.38;;;22.91;37.19
16255;BME280;8235;52.198;9.904;2023-05-29T12:05:05;101546.38;;;22.93;36.41
16255;BME280;8235;52.198;9.904;2023-05-29T12:07:33;101531.75;;;22.94;36.31
16255;BME280;8235;52.198;9.904;2023-05-29T12:10:08;101533.16;;;22.98;36.24
16255;BME280;8235;52.198;9.904;2023-05-29T12:12:35;101533.25;;;23.06;36.32
16255;BME280;8235;52.198;9.904;2023-05-29T12:15:02;101535.84;;;23.15;36.94
16255;BME280;8235;52.198;9.904;2023-05-29T12:17:30;101531.81;;;23.19;36.60
16255;BME280;8235;52.198;9.904;2023-05-29T12:19:57;101534.22;;;23.23;36.53
16255;BME280;8235;52.198;9.904;2023-05-29T12:22:32;101532.38;;;23.23;36.36
16255;BME280;8235;52.198;9.904;2023-05-29T12:25:22;101534.22;;;23.23;36.66
16255;BME280;8235;52.198;9.904;2023-05-29T12:28:06;101526.06;;;23.23;36.86
16255;BME280;8235;52.198;9.904;2023-05-29T12:30:37;101530.19;;;23.27;36.51
16255;BME280;8235;52.198;9.904;2023-05-29T12:33:03;101524.59;;;23.28;36.51
16255;BME280;8235;52.198;9.904;2023-05-29T12:35:31;101529.00;;;23.29;36.64
16255;BME280;8235;52.198;9.904;2023-05-29T12:38:00;101526.66;;;23.34;36.88
16255;BME280;8235;52.198;9.904;2023-05-29T12:40:28;101525.50;;;23.37;36.38
16255;BME280;8235;52.198;9.904;2023-05-29T12:42:56;101519.75;;;23.40;36.13
16255;BME280;8235;52.198;9.904;2023-05-29T12:45:24;101515.00;;;23.42;35.79
16255;BME280;8235;52.198;9.904;2023-05-29T12:47:53;101511.44;;;23.41;36.16
16255;BME280;8235;52.198;9.904;2023-05-29T12:50:21;101519.13;;;23.46;36.45
16255;BME280;8235;52.198;9.904;2023-05-29T12:53:00;101522.75;;;23.54;36.59
16255;BME280;8235;52.198;9.904;2023-05-29T12:55:28;101522.97;;;23.61;36.18
16255;BME280;8235;52.198;9.904;2023-05-29T12:57:55;101515.88;;;23.68;35.45
16255;BME280;8235;52.198;9.904;2023-05-29T13:00:23;101521.84;;;23.72;35.36
16255;BME280;8235;52.198;9.904;2023-05-29T13:02:49;101516.56;;;23.70;35.21
16255;BME280;8235;52.198;9.904;2023-05-29T13:05:17;101514.16;;;23.67;35.60